Time;durP1;ratioP1;P1;durP2;ratioP2;P2;SDS_P1;SDS_P2;PMS_P1;PMS_P2;Temp;Humidity;BMP_temperature;BMP_pressure;BME280_temperature;BME280_humidity;BME280_pressure;Samples;Min_cycle;Max_cycle;Signal;HPM_P1;HPM_P2
2023/12/22 00:01:51;;;;;;;;;;;;;;;-140.72;100.00;61625.97;5050544;28;19990;-73
2023/12/22 00:04:16;;;;;;;;;;;;;;;-140.72;100.00;61662.59;5051839;28;20344;-74
2023/12/22 00:06:41;;;;;;;;;;;;;;;-140.72;100.00;61638.19;5053508;28;20424;-74
2023/12/22 00:09:06;;;;;;;;;;;;;;;-140.72;100.00;61689.03;5064830;28;20378;-74
2023/12/22 00:11:32;;;;;;;;;;;;;;;-140.72;100.00;61678.84;5061841;28;20012;-74
2023/12/22 00:13:57;;;;;;;;;;;;;;;-140.72;100.00;61615.81;5062335;28;19924;-74
2023/12/22 00:16:22;;;;;;;;;;;;;;;-140.72;100.00;61560.88;5059849;28;19928;-73
2023/12/22 00:18:47;;;;;;;;;;;;;;;-140.72;100.00;61491.75;5048050;28;19970;-73
2023/12/22 00:21:12;;;;;;;;;;;;;;;-140.72;100.00;61308.72;5052865;28;19924;-74
2023/12/22 00:23:38;;;;;;;;;;;;;;;-140.72;100.00;61223.28;5040488;28;19920;-74
2023/12/22 00:26:06;;;;;;;;;;;;;;;-140.72;100.00;61013.84;5061757;28;19930;-74
2023/12/22 00:28:33;;;;;;;;;;;;;;;-140.72;100.00;60790.16;5063148;28;19964;-74
2023/12/22 00:30:59;;;;;;;;;;;;;;;-140.72;100.00;60570.53;5057591;28;19962;-74
2023/12/22 00:33:25;;;;;;;;;;;;;;;-140.72;100.00;60377.38;5059710;28;19924;-74
2023/12/22 00:35:50;;;;;;;;;;;;;;;-140.72;100.00;60155.78;5036678;28;19928;-74
2023/12/22 00:38:15;;;;;;;;;;;;;;;-140.72;100.00;59985.00;5060047;28;19927;-74
2023/12/22 00:40:41;;;;;;;;;;;;;;;-140.72;100.00;59816.25;5058745;28;19921;-74
2023/12/22 00:43:06;;;;;;;;;;;;;;;-140.72;100.00;59669.91;5053840;28;19921;-74
2023/12/22 00:45:31;;;;;;;;;;;;;;;-140.72;100.00;59470.69;5058728;28;19960;-74
2023/12/22 00:47:57;;;;;;;;;;;;;;;-140.72;100.00;59255.22;5056207;28;19936;-74
2023/12/22 00:50:22;;;;;;;;;;;;;;;-140.72;100.00;59064.16;5057399;28;19929;-74
2023/12/22 00:52:47;;;;;;;;;;;;;;;-140.72;100.00;58840.59;5058751;28;19970;-74
2023/12/22 00:55:12;;;;;;;;;;;;;;;-140.72;100.00;58722.69;5066191;28;19932;-74
2023/12/22 00:57:38;;;;;;;;;;;;;;;-140.72;100.00;58442.25;5044996;28;19944;-74
2023/12/22 01:00:04;;;;;;;;;;;;;;;-140.72;100.00;58379.25;5057585;28;19966;-74
2023/12/22 01:02:30;;;;;;;;;;;;;;;-140.72;100.00;58271.53;5058790;28;20001;-74
2023/12/22 01:04:55;;;;;;;;;;;;;;;-140.72;100.00;58182.13;5057735;28;19921;-74
2023/12/22 01:07:20;;;;;;;;;;;;;;;-140.72;100.00;58068.34;5057147;28;20375;-74
2023/12/22 01:09:45;;;;;;;;;;;;;;;-140.72;100.00;58041.91;5049003;28;19974;-74
2023/12/22 01:12:10;;;;;;;;;;;;;;;-140.72;100.00;58005.34;5050671;28;20015;-75
2023/12/22 01:14:37;;;;;;;;;;;;;;;-140.72;100.00;57964.69;5057460;28;19921;-74
2023/12/22 01:17:02;;;;;;;;;;;;;;;-140.72;100.00;57995.19;5056047;28;19925;-74
2023/12/22 01:19:27;;;;;;;;;;;;;;;-140.72;100.00;58019.56;5059458;28;19990;-74
2023/12/22 01:21:53;;;;;;;;;;;;;;;-140.72;100.00;57950.47;5035968;28;20321;-73
2023/12/22 01:24:18;;;;;;;;;;;;;;;-140.72;100.00;57875.28;5060090;28;19929;-74
2023/12/22 01:26:43;;;;;;;;;;;;;;;-140.72;100.00;57820.44;5059695;28;20400;-74
2023/12/22 01:29:09;;;;;;;;;;;;;;;-140.72;100.00;57779.81;5063221;28;19969;-73
2023/12/22 01:31:34;;;;;;;;;;;;;;;-140.72;100.00;57692.44;5056154;28;20287;-73
2023/12/22 01:33:59;;;;;;;;;;;;;;;-140.72;100.00;57625.38;5059936;28;20341;-73
2023/12/22 01:36:24;;;;;;;;;;;;;;;-140.72;100.00;57562.41;5053014;28;19986;-73
2023/12/22 01:38:50;;;;;;;;;;;;;;;-140.72;100.00;57542.06;5060497;28;19920;-74
2023/12/22 01:41:15;;;;;;;;;;;;;;;-140.72;100.00;57501.44;5053789;28;20231;-73
2023/12/22 01:43:40;;;;;;;;;;;;;;;-140.72;100.00;57519.72;5057956;28;19921;-73
2023/12/22 01:46:07;;;;;;;;;;;;;;;-140.72;100.00;57466.91;5057163;28;19928;-74
2023/12/22 01:48:33;;;;;;;;;;;;;;;-140.72;100.00;57527.84;5061304;28;19927;-73
2023/12/22 01:51:00;;;;;;;;;;;;;;;-140.72;100.00;57456.75;5052133;28;19921;-74
2023/12/22 01:53:26;;;;;;;;;;;;;;;-140.72;100.00;57442.53;5060579;28;19921;-73
2023/12/22 01:55:52;;;;;;;;;;;;;;;-140.72;100.00;57438.47;5042484;28;19924;-73
2023/12/22 01:58:18;;;;;;;;;;;;;;;-140.72;100.00;57538.00;5051375;28;19948;-74
2023/12/22 02:00:44;;;;;;;;;;;;;;;-140.72;100.00;57564.44;5058041;28;19920;-74
2023/12/22 02:03:09;;;;;;;;;;;;;;;-140.72;100.00;57576.63;5068031;28;19932;-74
2023/12/22 02:05:34;;;;;;;;;;;;;;;-140.72;100.00;57562.41;5054737;28;20363;-74
2023/12/22 02:08:00;;;;;;;;;;;;;;;-140.72;100.00;57633.50;5056228;28;20389;-74
2023/12/22 02:10:25;;;;;;;;;;;;;;;-140.72;100.00;57674.16;5052307;28;19951;-74
2023/12/22 02:12:50;;;;;;;;;;;;;;;-140.72;100.00;57698.53;5053560;28;20019;-74
2023/12/22 02:15:15;;;;;;;;;;;;;;;-140.72;100.00;57753.38;5057325;28;20370;-75
2023/12/22 02:17:41;;;;;;;;;;;;;;;-140.72;100.00;57828.56;5058640;28;19961;-73
2023/12/22 02:20:07;;;;;;;;;;;;;;;-140.72;100.00;57848.88;5037013;28;19920;-73
2023/12/22 02:22:32;;;;;;;;;;;;;;;-140.72;100.00;57907.81;5037321;28;19927;-73
2023/12/22 02:24:58;;;;;;;;;;;;;;;-140.72;100.00;57917.97;5049322;28;19920;-73
2023/12/22 02:27:29;;;;;;;;;;;;;;;-140.72;100.00;57934.22;5058466;28;20016;-74
2023/12/22 02:29:58;;;;;;;;;;;;;;;-140.72;100.00;57958.59;5033438;28;19921;-74
2023/12/22 02:32:31;;;;;;;;;;;;;;;-140.72;100.00;57950.47;5055914;28;19928;-74
2023/12/22 02:34:56;;;;;;;;;;;;;;;-140.72;100.00;57861.06;5052202;28;19947;-74
2023/12/22 02:37:22;;;;;;;;;;;;;;;-140.72;100.00;57863.09;5054192;28;19932;-74
2023/12/22 02:39:48;;;;;;;;;;;;;;;-140.72;100.00;57840.75;5065490;28;19928;-73
2023/12/22 02:42:13;;;;;;;;;;;;;;;-140.72;100.00;57881.41;5058401;28;19979;-73
2023/12/22 02:44:39;;;;;;;;;;;;;;;-140.72;100.00;57913.91;5058184;28;19947;-73
2023/12/22 02:47:04;;;;;;;;;;;;;;;-140.72;100.00;57885.47;5057688;28;19921;-74
2023/12/22 02:49:29;;;;;;;;;;;;;;;-140.72;100.00;57928.13;5054166;28;19929;-74
2023/12/22 02:51:54;;;;;;;;;;;;;;;-140.72;100.00;57932.19;5056768;28;19932;-73
2023/12/22 02:54:19;;;;;;;;;;;;;;;-140.72;100.00;57954.53;5063348;28;19932;-74
2023/12/22 02:56:45;;;;;;;;;;;;;;;-140.72;100.00;57964.69;5056374;28;19963;-73
2023/12/22 02:59:11;;;;;;;;;;;;;;;-140.72;100.00;57942.34;5055712;28;19932;-73
2023/12/22 03:01:36;;;;;;;;;;;;;;;-140.72;100.00;57960.63;5053905;28;19924;-73
2023/12/22 03:04:01;;;;;;;;;;;;;;;-140.72;100.00;57948.44;5055611;28;19960;-73
2023/12/22 03:06:26;;;;;;;;;;;;;;;-140.72;100.00;57818.41;5063129;28;19920;-73
2023/12/22 03:08:51;;;;;;;;;;;;;;;-140.72;100.00;57731.03;5060754;28;19924;-74
2023/12/22 03:11:17;;;;;;;;;;;;;;;-140.72;100.00;57651.78;5060952;28;19927;-73
2023/12/22 03:13:42;;;;;;;;;;;;;;;-140.72;100.00;57590.84;5054343;28;19928;-73
2023/12/22 03:16:10;;;;;;;;;;;;;;;-140.72;100.00;57552.22;5055359;28;19921;-73
2023/12/22 03:18:37;;;;;;;;;;;;;;;-140.72;100.00;57590.84;5038255;28;19969;-73
2023/12/22 03:21:03;;;;;;;;;;;;;;;-140.72;100.00;57568.50;5053664;28;19925;-73
2023/12/22 03:23:28;;;;;;;;;;;;;;;-140.72;100.00;57481.13;5060701;28;19928;-73
2023/12/22 03:25:53;;;;;;;;;;;;;;;-140.72;100.00;57412.03;5042309;28;19992;-73
2023/12/22 03:28:18;;;;;;;;;;;;;;;-140.72;100.00;57332.81;5038302;28;19925;-74
2023/12/22 03:30:43;;;;;;;;;;;;;;;-140.72;100.00;57308.44;5063546;28;19973;-73
2023/12/22 03:33:09;;;;;;;;;;;;;;;-140.72;100.00;57296.25;5056720;28;20019;-73
2023/12/22 03:35:34;;;;;;;;;;;;;;;-140.72;100.00;57145.91;5056467;28;20059;-73
2023/12/22 03:37:59;;;;;;;;;;;;;;;-140.72;100.00;57017.91;5057180;28;20408;-73
2023/12/22 03:40:24;;;;;;;;;;;;;;;-140.72;100.00;56934.63;5056105;28;20580;-74
2023/12/22 03:42:50;;;;;;;;;;;;;;;-140.72;100.00;56877.75;5047084;28;19921;-74
2023/12/22 03:45:15;;;;;;;;;;;;;;;-140.72;100.00;56863.53;5055159;28;20034;-73
2023/12/22 03:47:40;;;;;;;;;;;;;;;-140.72;100.00;56857.44;5049083;28;19981;-74
2023/12/22 03:50:06;;;;;;;;;;;;;;;-140.72;100.00;56875.72;5057901;28;19982;-73
2023/12/22 03:52:32;;;;;;;;;;;;;;;-140.72;100.00;56902.13;5036713;28;19957;-73
2023/12/22 03:54:57;;;;;;;;;;;;;;;-140.72;100.00;56889.94;5061316;28;20457;-73
2023/12/22 03:57:22;;;;;;;;;;;;;;;-140.72;100.00;56991.50;5054936;28;19928;-74
2023/12/22 03:59:47;;;;;;;;;;;;;;;-140.72;100.00;57026.03;5059301;28;19929;-73
2023/12/22 04:02:13;;;;;;;;;;;;;;;-140.72;100.00;57001.66;5065797;28;19920;-74
2023/12/22 04:04:38;;;;;;;;;;;;;;;-140.72;100.00;57038.22;5045751;28;19948;-74
2023/12/22 04:07:03;;;;;;;;;;;;;;;-140.72;100.00;57101.22;5059015;28;19920;-75
2023/12/22 04:09:29;;;;;;;;;;;;;;;-140.72;100.00;57089.03;5064833;28;19935;-75
2023/12/22 04:11:54;;;;;;;;;;;;;;;-140.72;100.00;57139.81;5061512;28;19928;-74
2023/12/22 04:14:19;;;;;;;;;;;;;;;-140.72;100.00;57174.34;5043031;28;19959;-75
2023/12/22 04:16:45;;;;;;;;;;;;;;;-140.72;100.00;57241.38;5062787;28;19948;-74
2023/12/22 04:19:10;;;;;;;;;;;;;;;-140.72;100.00;57273.91;5038347;28;20370;-75
2023/12/22 04:21:35;;;;;;;;;;;;;;;-140.72;100.00;57271.88;5060006;28;19924;-74
2023/12/22 04:24:01;;;;;;;;;;;;;;;-140.72;100.00;57259.66;5066804;28;19928;-73
2023/12/22 04:26:26;;;;;;;;;;;;;;;-140.72;100.00;57302.34;5072308;28;19969;-74
2023/12/22 04:28:51;;;;;;;;;;;;;;;-140.72;100.00;57336.88;5056187;28;19995;-74
2023/12/22 04:31:16;;;;;;;;;;;;;;;-140.72;100.00;57314.53;5059370;28;20015;-73
2023/12/22 04:33:41;;;;;;;;;;;;;;;-140.72;100.00;57345.00;5067079;28;19926;-73
2023/12/22 04:36:07;;;;;;;;;;;;;;;-140.72;100.00;57365.31;5058531;28;19976;-74
2023/12/22 04:38:32;;;;;;;;;;;;;;;-140.72;100.00;57430.34;5046488;28;19967;-74
2023/12/22 04:40:57;;;;;;;;;;;;;;;-140.72;100.00;57462.84;5038360;28;20378;-74
2023/12/22 04:43:23;;;;;;;;;;;;;;;-140.72;100.00;57580.69;5040551;28;19920;-74
2023/12/22 04:45:48;;;;;;;;;;;;;;;-140.72;100.00;57666.00;5063356;28;20020;-74
2023/12/22 04:48:13;;;;;;;;;;;;;;;-140.72;100.00;57759.47;5059660;28;20331;-74
2023/12/22 04:50:38;;;;;;;;;;;;;;;-140.72;100.00;57893.59;5063328;28;19978;-73
2023/12/22 04:53:03;;;;;;;;;;;;;;;-140.72;100.00;58007.38;5059357;28;19929;-74
2023/12/22 04:55:29;;;;;;;;;;;;;;;-140.72;100.00;58088.66;5055510;28;19974;-73
2023/12/22 04:57:54;;;;;;;;;;;;;;;-140.72;100.00;58200.41;5063314;28;20208;-73
2023/12/22 05:00:19;;;;;;;;;;;;;;;-140.72;100.00;58165.88;5054194;28;20054;-74
2023/12/22 05:02:44;;;;;;;;;;;;;;;-140.72;100.00;58174.00;5060924;28;19963;-73
2023/12/22 05:05:11;;;;;;;;;;;;;;;-140.72;100.00;58261.38;5059922;28;19924;-73
2023/12/22 05:07:36;;;;;;;;;;;;;;;-140.72;100.00;58218.72;5056417;28;19928;-74
2023/12/22 05:10:02;;;;;;;;;;;;;;;-140.72;100.00;58216.69;5052893;28;19921;-74
2023/12/22 05:12:28;;;;;;;;;;;;;;;-140.72;100.00;58226.84;5053957;28;19959;-74
2023/12/22 05:14:54;;;;;;;;;;;;;;;-140.72;100.00;58243.09;5060539;28;20005;-73
2023/12/22 05:17:19;;;;;;;;;;;;;;;-140.72;100.00;58279.66;5058372;28;19924;-74
2023/12/22 05:19:44;;;;;;;;;;;;;;;-140.72;100.00;58210.59;5063963;28;19967;-74
2023/12/22 05:22:10;;;;;;;;;;;;;;;-140.72;100.00;58232.94;5048843;28;20479;-74
2023/12/22 05:24:36;;;;;;;;;;;;;;;-140.72;100.00;58243.09;5053399;28;20360;-73
2023/12/22 05:27:02;;;;;;;;;;;;;;;-140.72;100.00;58200.41;5058248;28;19921;-74
2023/12/22 05:29:27;;;;;;;;;;;;;;;-140.72;100.00;58230.91;5059583;28;20015;-73
2023/12/22 05:31:52;;;;;;;;;;;;;;;-140.72;100.00;58243.09;5060632;28;20224;-77
2023/12/22 05:34:17;;;;;;;;;;;;;;;-140.72;100.00;58182.13;5056943;28;20397;-74
2023/12/22 05:36:42;;;;;;;;;;;;;;;-140.72;100.00;58247.16;5062353;28;19929;-73
2023/12/22 05:39:09;;;;;;;;;;;;;;;-140.72;100.00;58365.03;5051025;28;19939;-73
2023/12/22 05:41:36;;;;;;;;;;;;;;;-140.72;100.00;58476.78;5061137;28;19950;-74
2023/12/22 05:44:01;;;;;;;;;;;;;;;-140.72;100.00;58552.00;5063641;28;20342;-74
2023/12/22 05:46:27;;;;;;;;;;;;;;;-140.72;100.00;58588.56;5062944;28;19929;-75
2023/12/22 05:48:52;;;;;;;;;;;;;;;-140.72;100.00;58610.94;5040122;28;20001;-75
2023/12/22 05:51:17;;;;;;;;;;;;;;;-140.72;100.00;58684.09;5043168;28;19921;-75
2023/12/22 05:53:42;;;;;;;;;;;;;;;-140.72;100.00;58698.31;5057451;28;20290;-74
2023/12/22 05:56:18;;;;;;;;;;;;;;;-140.72;100.00;58694.25;5055143;28;19924;-74
2023/12/22 05:58:44;;;;;;;;;;;;;;;-140.72;100.00;58730.84;5060361;28;19924;-73
2023/12/22 06:01:13;;;;;;;;;;;;;;;-140.72;100.00;58753.19;5060338;28;19929;-74
2023/12/22 06:03:40;;;;;;;;;;;;;;;-140.72;100.00;58761.31;5061091;28;20024;-73
2023/12/22 06:06:05;;;;;;;;;;;;;;;-140.72;100.00;58791.81;5049340;28;20005;-74
2023/12/22 06:08:30;;;;;;;;;;;;;;;-140.72;100.00;58824.31;5066645;28;20338;-73
2023/12/22 06:10:56;;;;;;;;;;;;;;;-140.72;100.00;58791.81;5061710;28;20237;-74
2023/12/22 06:13:21;;;;;;;;;;;;;;;-140.72;100.00;58808.06;5052438;28;19921;-75
2023/12/22 06:15:46;;;;;;;;;;;;;;;-140.72;100.00;58791.81;5052287;28;19920;-75
2023/12/22 06:18:11;;;;;;;;;;;;;;;-140.72;100.00;58806.03;5054551;28;19967;-74
2023/12/22 06:20:37;;;;;;;;;;;;;;;-140.72;100.00;58755.22;5058395;28;19921;-75
2023/12/22 06:23:04;;;;;;;;;;;;;;;-140.72;100.00;58724.72;5038873;28;19944;-74
2023/12/22 06:25:29;;;;;;;;;;;;;;;-140.72;100.00;58665.78;5060626;28;19951;-76
2023/12/22 06:27:54;;;;;;;;;;;;;;;-140.72;100.00;58680.03;5057934;28;20358;-75
2023/12/22 06:30:19;;;;;;;;;;;;;;;-140.72;100.00;58604.81;5061807;28;20402;-74
2023/12/22 06:32:45;;;;;;;;;;;;;;;-140.72;100.00;58576.38;5035153;28;19921;-75
2023/12/22 06:35:10;;;;;;;;;;;;;;;-140.72;100.00;58572.31;5046082;28;19927;-74
2023/12/22 06:37:35;;;;;;;;;;;;;;;-140.72;100.00;58558.09;5056200;28;19928;-74
2023/12/22 06:40:01;;;;;;;;;;;;;;;-140.72;100.00;58495.09;5059737;28;20374;-75
2023/12/22 06:42:26;;;;;;;;;;;;;;;-140.72;100.00;58484.94;5057216;28;20266;-74
2023/12/22 06:44:51;;;;;;;;;;;;;;;-140.72;100.00;58535.72;5043538;28;19979;-76
2023/12/22 06:47:16;;;;;;;;;;;;;;;-140.72;100.00;58604.81;5055683;28;20015;-75
2023/12/22 06:49:41;;;;;;;;;;;;;;;-140.72;100.00;58566.22;5051311;28;19957;-75
2023/12/22 06:52:07;;;;;;;;;;;;;;;-140.72;100.00;58547.91;5055785;28;19927;-75
2023/12/22 06:54:33;;;;;;;;;;;;;;;-140.72;100.00;58556.06;5053797;28;19921;-75
2023/12/22 06:56:58;;;;;;;;;;;;;;;-140.72;100.00;58568.25;5045959;28;19921;-75
2023/12/22 06:59:24;;;;;;;;;;;;;;;-140.72;100.00;58584.50;5056144;28;19947;-75
2023/12/22 07:01:49;;;;;;;;;;;;;;;-140.72;100.00;58631.25;5043866;28;19933;-75
2023/12/22 07:04:14;;;;;;;;;;;;;;;-140.72;100.00;58602.78;5052171;28;20055;-75
2023/12/22 07:06:40;;;;;;;;;;;;;;;-140.72;100.00;58600.75;5051318;28;19977;-75
2023/12/22 07:09:11;;;;;;;;;;;;;;;-140.72;100.00;58619.06;5053845;28;19925;-74
2023/12/22 07:11:37;;;;;;;;;;;;;;;-140.72;100.00;58610.94;5059901;28;20014;-75
2023/12/22 07:14:02;;;;;;;;;;;;;;;-140.72;100.00;58631.25;5044606;28;19983;-74
2023/12/22 07:16:27;;;;;;;;;;;;;;;-140.72;100.00;58682.06;5033513;28;19920;-75
2023/12/22 07:18:53;;;;;;;;;;;;;;;-140.72;100.00;58684.09;5061504;28;19928;-75
2023/12/22 07:21:18;;;;;;;;;;;;;;;-140.72;100.00;58694.25;5050990;28;19925;-75
2023/12/22 07:23:44;;;;;;;;;;;;;;;-140.72;100.00;58734.91;5054726;28;19999;-75
2023/12/22 07:26:09;;;;;;;;;;;;;;;-140.72;100.00;58781.63;5052158;28;19967;-74
2023/12/22 07:28:34;;;;;;;;;;;;;;;-140.72;100.00;58799.94;5038924;28;19921;-75
2023/12/22 07:30:59;;;;;;;;;;;;;;;-140.72;100.00;58812.13;5053451;28;19986;-75
2023/12/22 07:33:25;;;;;;;;;;;;;;;-140.72;100.00;58893.44;5057062;28;19928;-75
2023/12/22 07:35:50;;;;;;;;;;;;;;;-140.72;100.00;58913.75;5057272;28;20072;-75
2023/12/22 07:38:15;;;;;;;;;;;;;;;-140.72;100.00;58948.31;5059159;28;20003;-75
2023/12/22 07:40:40;;;;;;;;;;;;;;;-140.72;100.00;59013.34;5041144;28;20081;-75
2023/12/22 07:43:05;;;;;;;;;;;;;;;-140.72;100.00;59037.72;5058218;28;20015;-75
2023/12/22 07:45:31;;;;;;;;;;;;;;;-140.72;100.00;59056.03;5056334;28;19936;-75
2023/12/22 07:47:56;;;;;;;;;;;;;;;-140.72;100.00;59192.19;5057743;28;19976;-75
2023/12/22 07:50:21;;;;;;;;;;;;;;;-140.72;100.00;59230.81;5061159;28;20401;-75
2023/12/22 07:52:46;;;;;;;;;;;;;;;-140.72;100.00;59334.50;5053223;28;20396;-75
2023/12/22 07:55:12;;;;;;;;;;;;;;;-140.72;100.00;59421.91;5051080;28;20105;-75
2023/12/22 07:57:37;;;;;;;;;;;;;;;-140.72;100.00;59558.09;5062686;28;20015;-75
2023/12/22 08:00:04;;;;;;;;;;;;;;;-140.72;100.00;59690.22;5058428;28;19925;-76
2023/12/22 08:02:29;;;;;;;;;;;;;;;-140.72;100.00;59797.97;5062985;28;19924;-75
2023/12/22 08:04:54;;;;;;;;;;;;;;;-140.72;100.00;59917.91;5060320;28;20003;-75
2023/12/22 08:07:20;;;;;;;;;;;;;;;-140.72;100.00;59976.88;5058480;28;19947;-75
2023/12/22 08:09:45;;;;;;;;;;;;;;;-140.72;100.00;60068.34;5051769;28;19982;-74
2023/12/22 08:12:10;;;;;;;;;;;;;;;-140.72;100.00;60104.94;5054529;28;19921;-74
2023/12/22 08:14:35;;;;;;;;;;;;;;;-140.72;100.00;60218.81;5054999;28;19920;-74
2023/12/22 08:17:01;;;;;;;;;;;;;;;-140.72;100.00;60296.06;5064991;28;19921;-74
2023/12/22 08:19:26;;;;;;;;;;;;;;;-140.72;100.00;60322.50;5058920;28;20271;-74
2023/12/22 08:21:55;;;;;;;;;;;;;;;-140.72;100.00;60434.31;5051509;28;19925;-74
2023/12/22 08:24:20;;;;;;;;;;;;;;;-140.72;100.00;60466.84;5054486;28;20354;-75
2023/12/22 08:26:46;;;;;;;;;;;;;;;-140.72;100.00;60556.31;5044710;28;19927;-74
2023/12/22 08:29:11;;;;;;;;;;;;;;;-140.72;100.00;60629.50;5043559;28;19924;-74
2023/12/22 08:31:36;;;;;;;;;;;;;;;-140.72;100.00;60676.28;5058734;28;19921;-75
2023/12/22 08:34:01;;;;;;;;;;;;;;;-140.72;100.00;60747.44;5053850;28;19927;-74
2023/12/22 08:36:27;;;;;;;;;;;;;;;-140.72;100.00;60794.22;5061848;28;19927;-74
2023/12/22 08:38:52;;;;;;;;;;;;;;;-140.72;100.00;60802.34;5040541;28;20042;-74
2023/12/22 08:41:17;;;;;;;;;;;;;;;-140.72;100.00;60847.09;5069880;28;20015;-75
2023/12/22 08:43:42;;;;;;;;;;;;;;;-140.72;100.00;60912.16;5040679;28;19925;-75
2023/12/22 08:46:09;;;;;;;;;;;;;;;-140.72;100.00;60999.59;5061109;28;19921;-75
2023/12/22 08:48:34;;;;;;;;;;;;;;;-140.72;100.00;61125.69;5044664;28;20374;-75
2023/12/22 08:51:00;;;;;;;;;;;;;;;-140.72;100.00;61225.31;5065289;28;20026;-76
2023/12/22 08:53:25;;;;;;;;;;;;;;;-140.72;100.00;61292.44;5041375;28;19921;-75
2023/12/22 08:55:50;;;;;;;;;;;;;;;-140.72;100.00;61367.69;5059590;28;20065;-75
2023/12/22 08:58:16;;;;;;;;;;;;;;;-140.72;100.00;61379.88;5055471;28;19925;-74
2023/12/22 09:00:41;;;;;;;;;;;;;;;-140.72;100.00;61461.22;5053223;28;20058;-75
2023/12/22 09:03:06;;;;;;;;;;;;;;;-140.72;100.00;61532.41;5061204;28;19970;-74
2023/12/22 09:05:32;;;;;;;;;;;;;;;-140.72;100.00;61569.03;5062976;28;20468;-75
2023/12/22 09:07:57;;;;;;;;;;;;;;;-140.72;100.00;61623.94;5041968;28;20046;-74
2023/12/22 09:10:22;;;;;;;;;;;;;;;-140.72;100.00;61569.03;5053992;28;19927;-76
2023/12/22 09:12:48;;;;;;;;;;;;;;;-140.72;100.00;61591.41;5061966;28;19921;-77
2023/12/22 09:15:13;;;;;;;;;;;;;;;-140.72;100.00;61573.09;5031682;28;19928;-75
2023/12/22 09:17:38;;;;;;;;;;;;;;;-140.72;100.00;61560.88;5062167;28;20947;-75
2023/12/22 09:20:04;;;;;;;;;;;;;;;-140.72;100.00;61540.56;5059859;28;20040;-74
2023/12/22 09:22:30;;;;;;;;;;;;;;;-140.72;100.00;61508.00;5059283;28;19972;-76
2023/12/22 09:24:55;;;;;;;;;;;;;;;-140.72;100.00;61438.88;5038762;28;20031;-75
2023/12/22 09:27:21;;;;;;;;;;;;;;;-140.72;100.00;61377.84;5051859;28;20034;-75
2023/12/22 09:29:46;;;;;;;;;;;;;;;-140.72;100.00;61296.50;5062676;28;19921;-74
2023/12/22 09:32:11;;;;;;;;;;;;;;;-140.72;100.00;61231.44;5038493;28;20340;-74
2023/12/22 09:34:36;;;;;;;;;;;;;;;-140.72;100.00;61133.81;5061405;28;20334;-73
2023/12/22 09:37:01;;;;;;;;;;;;;;;-140.72;100.00;61058.56;5056926;28;19928;-74
2023/12/22 09:39:28;;;;;;;;;;;;;;;-140.72;100.00;61024.00;5072394;28;19920;-75
2023/12/22 09:41:54;;;;;;;;;;;;;;;-140.72;100.00;60971.13;5055688;28;20324;-73
2023/12/22 09:44:23;;;;;;;;;;;;;;;-140.72;100.00;60934.53;5059126;28;19932;-76
2023/12/22 09:46:49;;;;;;;;;;;;;;;-140.72;100.00;60840.97;5043660;28;20503;-74
2023/12/22 09:49:16;;;;;;;;;;;;;;;-140.72;100.00;60828.78;5037354;28;19921;-78
2023/12/22 09:51:42;;;;;;;;;;;;;;;-140.72;100.00;60773.88;5053387;28;19920;-75
2023/12/22 09:54:09;;;;;;;;;;;;;;;-140.72;100.00;60733.22;5056532;28;19921;-74
2023/12/22 09:56:36;;;;;;;;;;;;;;;-140.72;100.00;60723.03;5036412;28;19928;-75
2023/12/22 09:59:02;;;;;;;;;;;;;;;-140.72;100.00;60668.16;5041635;28;19921;-76
2023/12/22 10:01:28;;;;;;;;;;;;;;;-140.72;100.00;60637.66;5039687;28;19964;-74
2023/12/22 10:03:53;;;;;;;;;;;;;;;-140.72;100.00;60574.63;5038626;28;19928;-74
2023/12/22 10:06:19;;;;;;;;;;;;;;;-140.72;100.00;60531.91;5039878;28;20365;-74
2023/12/22 10:08:46;;;;;;;;;;;;;;;-140.72;100.00;60454.66;5052113;28;20481;-74
2023/12/22 10:11:12;;;;;;;;;;;;;;;-140.72;100.00;60442.44;5031992;28;20332;-75
2023/12/22 10:13:39;;;;;;;;;;;;;;;-140.72;100.00;60381.44;5055625;28;20012;-74
2023/12/22 10:16:05;;;;;;;;;;;;;;;-140.72;100.00;60292.00;5038353;28;20378;-74
2023/12/22 10:18:31;;;;;;;;;;;;;;;-140.72;100.00;60233.03;5059238;28;19927;-74
2023/12/22 10:20:56;;;;;;;;;;;;;;;-140.72;100.00;60180.16;5061819;28;20282;-74
2023/12/22 10:23:21;;;;;;;;;;;;;;;-140.72;100.00;60165.94;5067758;28;19921;-76
2023/12/22 10:25:47;;;;;;;;;;;;;;;-140.72;100.00;60153.75;5059645;28;19921;-75
2023/12/22 10:28:13;;;;;;;;;;;;;;;-140.72;100.00;60106.97;5054869;28;19927;-76
2023/12/22 10:30:39;;;;;;;;;;;;;;;-140.72;100.00;60080.56;5038231;28;19925;-73
2023/12/22 10:33:05;;;;;;;;;;;;;;;-140.72;100.00;60033.78;5037907;28;20393;-75
2023/12/22 10:35:30;;;;;;;;;;;;;;;-140.72;100.00;59976.88;5047306;28;19936;-74
2023/12/22 10:37:56;;;;;;;;;;;;;;;-140.72;100.00;59860.97;5033646;28;19920;-75
2023/12/22 10:40:22;;;;;;;;;;;;;;;-140.72;100.00;59806.09;5054282;28;19936;-74
2023/12/22 10:42:48;;;;;;;;;;;;;;;-140.72;100.00;59743.06;5047607;28;20011;-73
2023/12/22 10:45:13;;;;;;;;;;;;;;;-140.72;100.00;59763.41;5048930;28;20633;-74
2023/12/22 10:47:39;;;;;;;;;;;;;;;-140.72;100.00;59688.19;5057269;28;19970;-73
2023/12/22 10:50:05;;;;;;;;;;;;;;;-140.72;100.00;59673.97;5046161;28;19952;-74
2023/12/22 10:52:30;;;;;;;;;;;;;;;-140.72;100.00;59661.75;5057919;28;19948;-76
2023/12/22 10:54:57;;;;;;;;;;;;;;;-140.72;100.00;59676.00;5055045;28;19995;-75
2023/12/22 10:57:22;;;;;;;;;;;;;;;-140.72;100.00;59625.16;5045197;28;19920;-77
2023/12/22 10:59:48;;;;;;;;;;;;;;;-140.72;100.00;59621.09;5058075;28;19927;-76
2023/12/22 11:02:15;;;;;;;;;;;;;;;-140.72;100.00;59600.78;5065299;28;20058;-76
2023/12/22 11:04:42;;;;;;;;;;;;;;;-140.72;100.00;59560.13;5052993;28;19928;-76
2023/12/22 11:07:09;;;;;;;;;;;;;;;-140.72;100.00;59566.22;5060517;28;20003;-76
2023/12/22 11:09:35;;;;;;;;;;;;;;;-140.72;100.00;59547.94;5042465;28;19921;-77
2023/12/22 11:12:01;;;;;;;;;;;;;;;-140.72;100.00;59556.06;5039588;28;19921;-77
2023/12/22 11:14:26;;;;;;;;;;;;;;;-140.72;100.00;59665.81;5040308;28;19936;-77
2023/12/22 11:16:53;;;;;;;;;;;;;;;-140.72;100.00;59649.56;5056757;28;19929;-78
2023/12/22 11:19:19;;;;;;;;;;;;;;;-140.72;100.00;59678.03;5048074;28;19920;-74
2023/12/22 11:21:44;;;;;;;;;;;;;;;-140.72;100.00;59678.03;5055735;28;19999;-75
2023/12/22 11:24:12;;;;;;;;;;;;;;;-140.72;100.00;59718.69;5068664;28;19964;-75
2023/12/22 11:26:38;;;;;;;;;;;;;;;-140.72;100.00;59698.34;5052780;28;19944;-75
2023/12/22 11:29:05;;;;;;;;;;;;;;;-140.72;100.00;59669.91;5040140;28;19929;-76
2023/12/22 11:31:31;;;;;;;;;;;;;;;-140.72;100.00;59714.63;5065718;28;19927;-77
2023/12/22 11:33:59;;;;;;;;;;;;;;;-140.72;100.00;59682.09;5062169;28;20255;-78
2023/12/22 11:36:24;;;;;;;;;;;;;;;-140.72;100.00;59669.91;5052287;28;20143;-80
2023/12/22 11:38:49;;;;;;;;;;;;;;;-140.72;100.00;59608.91;5042061;28;19921;-78
2023/12/22 11:41:22;;;;;;;;;;;;;;;-140.72;100.00;59637.38;5061362;28;20126;-80
2023/12/22 11:43:47;;;;;;;;;;;;;;;-140.72;100.00;59580.44;5041210;28;19920;-76
2023/12/22 11:46:13;;;;;;;;;;;;;;;-140.72;100.00;59554.03;5053989;28;20298;-76
2023/12/22 11:48:46;;;;;;;;;;;;;;;-140.72;100.00;59566.22;5064452;28;19927;-78
2023/12/22 11:51:14;;;;;;;;;;;;;;;-140.72;100.00;59543.84;5040126;28;19927;-77
2023/12/22 11:53:39;;;;;;;;;;;;;;;-140.72;100.00;59537.75;5052489;28;20016;-75
2023/12/22 11:56:07;;;;;;;;;;;;;;;-140.72;100.00;59464.59;5046950;28;19964;-78
2023/12/22 11:58:37;;;;;;;;;;;;;;;-140.72;100.00;59474.75;5047389;28;20355;-74
2023/12/22 12:01:05;;;;;;;;;;;;;;;-140.72;100.00;59423.94;5046852;28;19964;-76
2023/12/22 12:03:31;;;;;;;;;;;;;;;-140.72;100.00;59332.47;5028683;28;19927;-74
2023/12/22 12:06:23;;;;;;;;;;;;;;;-140.72;100.00;59314.16;5058104;28;20069;-78
2023/12/22 12:08:51;;;;;;;;;;;;;;;-140.72;100.00;59312.13;5029852;28;19947;-74
2023/12/22 12:11:17;;;;;;;;;;;;;;;-140.72;100.00;59273.50;5049019;28;19928;-75